Atlantic Explorer — WDC9417 — position and weather

sailwx.info

Track history (hours):
 
Tides and Currents Weather Stations Pressure Air Temp Water Temp Dewpoint Dewpoint Depression Visibility Wind Speed Wind Dir Waves Ship Positions

Oceanographic research ship Atlantic Explorer (USA)

Owner: Bermuda Biological Station for Research, Inc., Jamaica, NY. More information available from US FCC via Universal Licensing System and Coast Guard Vessel Documentation Center.

Last reported at 2017-Jul-21 21:00 UTC. Time now 2017-Jul-23 14:37 UTC.
Position N 32°24' W 064°42'.

Length 51 m; draft 3.6 m.

Type: Dredging. MMSI: 303591000.

Wind from 240 at 16 knots

Barometer 1018.4 mb
Air temperature 28.2 ° C
Dewpoint 23.9 ° C
Water temperature 29.2 ° C

Date/timePositionNaut miles runAvg speedWind from/ knotsBaromVisibWave heightAir tempDewpointWater temp
2017-Jul-21 21:00N 32°24' W 064°42'8 7.9 240 / 161018.4 28.223.929.2
2017-Jul-21 20:00N 32°18' W 064°36'8 7.9 230 / 161018.4 28.224.228.1
2017-Jul-21 19:00N 32°12' W 064°30'8 7.9 230 / 19 28.1
2017-Jul-21 18:00N 32°06' W 064°24'6 6.0 220 / 17 28.2
2017-Jul-21 17:00N 32°00' W 064°24'1313.0 210 / 13 28.6
2017-Jul-21 16:00N 31°48' W 064°18'8 7.9 210 / 12 28.1
2017-Jul-21 15:00N 31°42' W 064°12'6 6.0 200 / 12 28.3
2017-Jul-21 14:00N 31°36' W 064°12'0 0.0 220 / 14 28.1
2017-Jul-21 13:00N 31°36' W 064°12'0 0.0 210 / 14 28.1
2017-Jul-21 12:00N 31°36' W 064°12'0 0.0 220 / 14 28.1
2017-Jul-21 11:00N 31°36' W 064°12'6 6.0 220 / 15 28.1
2017-Jul-21 10:00N 31°42' W 064°12'5 5.1 230 / 13 28.1
2017-Jul-21 09:00N 31°42' W 064°06'0 0.0 220 / 15 28.1
2017-Jul-21 08:00N 31°42' W 064°06'8 7.9 230 / 15 28.0
2017-Jul-21 07:00N 31°48' W 064°00'1010.2 210 / 14 28.2
2017-Jul-21 06:00N 31°48' W 063°48'0 0.0 230 / 11 28.0
2017-Jul-21 05:00N 31°48' W 063°48'5 5.1 230 / 11 28.0
2017-Jul-21 04:00N 31°48' W 063°42'   220 / 15 28.0
Track history (hours):
 
Tides and Currents Weather Stations Pressure Air Temp Water Temp Dewpoint Dewpoint Depression Visibility Wind Speed Wind Dir Waves Ship Positions

Oceanographic research ship Atlantic Explorer (USA)

Owner: Bermuda Biological Station for Research, Inc., Jamaica, NY. More information available from US FCC via Universal Licensing System and Coast Guard Vessel Documentation Center.

Last reported at 2017-Jul-21 21:00 UTC. Time now 2017-Jul-23 14:37 UTC.
Position N 32°24' W 064°42'.

Length 51 m; draft 3.6 m.

Type: Dredging. MMSI: 303591000.

Wind from 240 at 16 knots

Barometer 1018.4 mb
Air temperature 28.2 ° C
Dewpoint 23.9 ° C
Water temperature 29.2 ° C

Date/timePositionNaut miles runAvg speedWind from/ knotsBaromVisibWave heightAir tempDewpointWater temp
2017-Jul-21 21:00N 32°24' W 064°42'8 7.9 240 / 161018.4 28.223.929.2
2017-Jul-21 20:00N 32°18' W 064°36'8 7.9 230 / 161018.4 28.224.228.1
2017-Jul-21 19:00N 32°12' W 064°30'8 7.9 230 / 19 28.1
2017-Jul-21 18:00N 32°06' W 064°24'6 6.0 220 / 17 28.2
2017-Jul-21 17:00N 32°00' W 064°24'1313.0 210 / 13 28.6
2017-Jul-21 16:00N 31°48' W 064°18'8 7.9 210 / 12 28.1
2017-Jul-21 15:00N 31°42' W 064°12'6 6.0 200 / 12 28.3
2017-Jul-21 14:00N 31°36' W 064°12'0 0.0 220 / 14 28.1
2017-Jul-21 13:00N 31°36' W 064°12'0 0.0 210 / 14 28.1
2017-Jul-21 12:00N 31°36' W 064°12'0 0.0 220 / 14 28.1
2017-Jul-21 11:00N 31°36' W 064°12'6 6.0 220 / 15 28.1
2017-Jul-21 10:00N 31°42' W 064°12'5 5.1 230 / 13 28.1
2017-Jul-21 09:00N 31°42' W 064°06'0 0.0 220 / 15 28.1
2017-Jul-21 08:00N 31°42' W 064°06'8 7.9 230 / 15 28.0
2017-Jul-21 07:00N 31°48' W 064°00'1010.2 210 / 14 28.2
2017-Jul-21 06:00N 31°48' W 063°48'0 0.0 230 / 11 28.0
2017-Jul-21 05:00N 31°48' W 063°48'5 5.1 230 / 11 28.0
2017-Jul-21 04:00N 31°48' W 063°42'   220 / 15 28.0

Dump ship's entire track history